MGGT/GUA METAR and TAF weather

Enter ICAO airport designator
Station Type Date Time Source
MGGT METAR 2021/07/26 13:00 UTC NOAA

MGGT 261300Z 03008KT 9999 BKN014 16/14 Q1022 A3018 FEW200


Station Type Date Time Source
MGGT Decoded METAR 2021/07/26 13:00 UTC NOAA

Guatemala Aeropuertola Aurora , Guatemala (MGGT) 14-35N 090-31W 1489M
Jul 26, 2021 - 09:00 AM EDT / 2021.07.26 1300 UTC
Wind: from the NNE (030 degrees) at 9 MPH (8 KT):0
Visibility: greater than 7 mile(s):0
Sky conditions: mostly cloudy
Temperature: 60 F (16 C)
Dew Point: 57 F (14 C)
Relative Humidity: 87%
Pressure (altimeter): 30.18 in. Hg (1022 hPa)
ob: MGGT 261300Z 03008KT 9999 BKN014 16/14 Q1022 A3018 FEW200
cycle: 13

Station Type Date Time Source
MGGT TAF 2021/07/26 12:03 UTC NOAA

TAF TAF MGGT 261100Z 2612/2712 36010KT 9999 FEW014 TX26/2620Z TN16/2612Z
BECMG 2616/2618 03010KT SCT018 PROB30
TEMPO 2620/2704 18008KT 8000 VCSH BKN018
BECMG 2700/2702 36008KT SCT016

Example: see airport list